Time;durP1;ratioP1;P1;durP2;ratioP2;P2;SDS_P1;SDS_P2;PMS_P1;PMS_P2;Temp;Humidity;BMP_temperature;BMP_pressure;BME280_temperature;BME280_humidity;BME280_pressure;Samples;Min_cycle;Max_cycle;Signal;HPM_P1;HPM_P2
2022/04/25 00:01:23;;;;;;;123.37;28.87;;;;;;;;;;4953360;28;20639;-68
2022/04/25 00:03:49;;;;;;;88.33;22.60;;;;;;;;;;4954453;28;20214;-68
2022/04/25 00:06:15;;;;;;;112.57;26.30;;;;;;;;;;4958151;28;20213;-67
2022/04/25 00:08:42;;;;;;;82.77;20.13;;;;;;;;;;4953727;28;20252;-68
2022/04/25 00:11:08;;;;;;;155.07;38.47;;;;;;;;;;4954035;28;20222;-68
2022/04/25 00:13:34;;;;;;;101.57;25.23;;;;;;;;;;4952618;28;20237;-68
2022/04/25 00:16:00;;;;;;;113.17;33.80;;;;;;;;;;4939133;28;20897;-68
2022/04/25 00:18:26;;;;;;;75.33;20.73;;;;;;;;;;4957949;28;20190;-66
2022/04/25 00:20:52;;;;;;;70.30;18.70;;;;;;;;;;4955435;28;20207;-68
2022/04/25 00:23:18;;;;;;;89.90;23.10;;;;;;;;;;4953914;28;20217;-68
2022/04/25 00:25:44;;;;;;;121.47;31.03;;;;;;;;;;4950991;28;20218;-68
2022/04/25 00:28:10;;;;;;;129.43;35.03;;;;;;;;;;4948995;28;20238;-68
2022/04/25 00:30:36;;;;;;;80.17;20.77;;;;;;;;;;4958450;28;20198;-67
2022/04/25 00:33:02;;;;;;;162.47;45.17;;;;;;;;;;4938882;28;20552;-68
2022/04/25 00:35:29;;;;;;;102.17;30.07;;;;;;;;;;4952818;28;20245;-68
2022/04/25 00:37:55;;;;;;;97.63;29.67;;;;;;;;;;4955776;28;20206;-68
2022/04/25 00:40:22;;;;;;;73.43;34.90;;;;;;;;;;4953217;28;20241;-68
2022/04/25 00:42:48;;;;;;;92.50;49.83;;;;;;;;;;4959976;28;20219;-68
2022/04/25 00:45:15;;;;;;;172.37;81.53;;;;;;;;;;4954608;28;20221;-68
2022/04/25 00:47:41;;;;;;;88.30;57.53;;;;;;;;;;4949455;28;20230;-68
2022/04/25 00:50:08;;;;;;;169.37;69.03;;;;;;;;;;4953196;28;20210;-68
2022/04/25 00:52:34;;;;;;;74.90;33.10;;;;;;;;;;4939034;28;20293;-68
2022/04/25 00:55:01;;;;;;;126.57;52.77;;;;;;;;;;4959604;28;20214;-68
2022/04/25 00:57:28;;;;;;;79.03;38.07;;;;;;;;;;4958248;28;20217;-67
2022/04/25 00:59:56;;;;;;;94.27;40.00;;;;;;;;;;4954281;28;20557;-68
2022/04/25 01:02:22;;;;;;;50.67;30.80;;;;;;;;;;4956689;28;20233;-68
2022/04/25 01:04:48;;;;;;;82.37;37.37;;;;;;;;;;4958602;28;20285;-68
2022/04/25 01:07:14;;;;;;;85.23;38.77;;;;;;;;;;4956770;28;20234;-68
2022/04/25 01:09:40;;;;;;;103.30;42.90;;;;;;;;;;4937780;28;20205;-67
2022/04/25 01:12:06;;;;;;;151.40;59.17;;;;;;;;;;4953994;28;20206;-68
2022/04/25 01:14:32;;;;;;;88.90;40.73;;;;;;;;;;4934947;28;20922;-68
2022/04/25 01:17:00;;;;;;;134.60;54.57;;;;;;;;;;4955491;28;20214;-68
2022/04/25 01:19:26;;;;;;;82.33;38.43;;;;;;;;;;4964537;28;20688;-68
2022/04/25 01:21:57;;;;;;;121.83;53.30;;;;;;;;;;4951466;28;20225;-68
2022/04/25 01:27:17;;;;;;;202.60;80.03;;;;;;;;;;4949980;28;20595;-68
2022/04/25 01:29:53;;;;;;;132.27;50.23;;;;;;;;;;4951287;28;20222;-68
2022/04/25 01:32:20;;;;;;;88.67;40.17;;;;;;;;;;4962153;28;20639;-68
2022/04/25 01:34:46;;;;;;;128.97;51.27;;;;;;;;;;4954478;28;20216;-68
2022/04/25 01:37:13;;;;;;;121.63;50.60;;;;;;;;;;4952838;28;20305;-68
2022/04/25 01:39:40;;;;;;;116.60;45.97;;;;;;;;;;4955218;28;20189;-67
2022/04/25 01:42:06;;;;;;;119.13;48.03;;;;;;;;;;4959569;28;20241;-68
2022/04/25 01:44:32;;;;;;;80.90;34.47;;;;;;;;;;4956212;28;20222;-67
2022/04/25 01:46:58;;;;;;;126.17;52.13;;;;;;;;;;4957597;28;20225;-68
2022/04/25 01:49:25;;;;;;;81.70;36.70;;;;;;;;;;4956969;28;20620;-68
2022/04/25 01:51:51;;;;;;;81.80;38.33;;;;;;;;;;4953614;28;20278;-68
2022/04/25 01:54:21;;;;;;;55.40;30.63;;;;;;;;;;4955531;28;20195;-68
2022/04/25 01:56:46;;;;;;;102.77;40.90;;;;;;;;;;4938289;28;20680;-68
2022/04/25 01:59:12;;;;;;;149.07;56.23;;;;;;;;;;4952534;28;20216;-68
2022/04/25 02:01:38;;;;;;;104.00;42.93;;;;;;;;;;4951099;28;20218;-68
2022/04/25 02:04:04;;;;;;;167.37;70.30;;;;;;;;;;4952299;28;20210;-68
2022/04/25 02:06:30;;;;;;;132.93;19.70;;;;;;;;;;4948790;28;20214;-67
2022/04/25 02:08:56;;;;;;;82.90;13.03;;;;;;;;;;4949581;28;20189;-68
2022/04/25 02:11:23;;;;;;;79.73;11.93;;;;;;;;;;4950331;28;20303;-68
2022/04/25 02:13:51;;;;;;;99.50;14.20;;;;;;;;;;4950947;28;20229;-68
2022/04/25 02:16:17;;;;;;;84.73;12.07;;;;;;;;;;4949363;28;20217;-68
2022/04/25 02:18:43;;;;;;;62.63;9.77;;;;;;;;;;4952708;28;20253;-68
2022/04/25 02:21:09;;;;;;;152.17;21.47;;;;;;;;;;4948840;28;20202;-67
2022/04/25 02:23:35;;;;;;;91.57;13.03;;;;;;;;;;4948919;28;20314;-68
2022/04/25 02:26:01;;;;;;;102.90;15.90;;;;;;;;;;4955020;28;20214;-68
2022/04/25 02:28:28;;;;;;;89.37;12.73;;;;;;;;;;4951105;28;20260;-68
2022/04/25 02:30:54;;;;;;;44.03;6.90;;;;;;;;;;4955290;28;20218;-68
2022/04/25 02:33:20;;;;;;;93.60;13.47;;;;;;;;;;4948662;28;20270;-68
2022/04/25 02:35:46;;;;;;;77.23;11.17;;;;;;;;;;4952999;28;20210;-68
2022/04/25 02:38:12;;;;;;;61.67;8.90;;;;;;;;;;4954364;28;20261;-68
2022/04/25 02:40:38;;;;;;;45.67;6.93;;;;;;;;;;4942021;28;20628;-67
2022/04/25 02:43:04;;;;;;;112.23;15.83;;;;;;;;;;4960124;28;20214;-68
2022/04/25 02:45:30;;;;;;;50.60;7.77;;;;;;;;;;4951984;28;20187;-67
2022/04/25 02:47:56;;;;;;;80.50;11.87;;;;;;;;;;4955430;28;20246;-68
2022/04/25 02:50:22;;;;;;;60.53;8.93;;;;;;;;;;4958848;28;20220;-68
2022/04/25 02:52:51;;;;;;;80.97;11.63;;;;;;;;;;4950709;28;20214;-68
2022/04/25 02:55:17;;;;;;;65.53;9.60;;;;;;;;;;4956104;28;20273;-67
2022/04/25 02:57:42;;;;;;;58.10;8.93;;;;;;;;;;4958441;28;20685;-68
2022/04/25 03:00:09;;;;;;;130.63;18.47;;;;;;;;;;4939268;28;20190;-68
2022/04/25 03:02:34;;;;;;;80.77;11.83;;;;;;;;;;4936003;28;20596;-68
2022/04/25 03:05:00;;;;;;;96.87;14.17;;;;;;;;;;4958765;28;20228;-68
2022/04/25 03:07:26;;;;;;;57.73;8.67;;;;;;;;;;4957643;28;20241;-68
2022/04/25 03:09:52;;;;;;;64.40;9.37;;;;;;;;;;4960440;28;20222;-68
2022/04/25 03:12:18;;;;;;;72.53;10.40;;;;;;;;;;4959741;28;20217;-68
2022/04/25 03:14:45;;;;;;;86.67;12.53;;;;;;;;;;4935602;28;20222;-68
2022/04/25 03:17:11;;;;;;;112.10;16.57;;;;;;;;;;4957617;28;20313;-67
2022/04/25 03:19:38;;;;;;;107.37;15.13;;;;;;;;;;4956262;28;20222;-67
2022/04/25 03:22:04;;;;;;;126.57;17.97;;;;;;;;;;4954549;28;20222;-67
2022/04/25 03:24:30;;;;;;;76.20;11.27;;;;;;;;;;4952785;28;20230;-68
2022/04/25 03:26:56;;;;;;;104.70;15.20;;;;;;;;;;4961164;28;20616;-67
2022/04/25 03:29:22;;;;;;;83.97;12.27;;;;;;;;;;4956590;28;20238;-68
2022/04/25 03:31:48;;;;;;;108.20;15.33;;;;;;;;;;4954713;28;20592;-67
2022/04/25 03:34:14;;;;;;;62.93;9.43;;;;;;;;;;4950822;28;20245;-67
2022/04/25 03:36:44;;;;;;;87.80;13.17;;;;;;;;;;4953171;28;20255;-67
2022/04/25 03:39:10;;;;;;;100.07;14.27;;;;;;;;;;4954163;28;20202;-67
2022/04/25 03:41:36;;;;;;;46.80;7.17;;;;;;;;;;4955484;28;20826;-67
2022/04/25 03:44:03;;;;;;;99.57;14.10;;;;;;;;;;4955972;28;20276;-68
2022/04/25 03:46:29;;;;;;;83.63;12.23;;;;;;;;;;4952422;28;20233;-68
2022/04/25 03:48:55;;;;;;;99.40;14.17;;;;;;;;;;4949797;28;20224;-67
2022/04/25 03:51:22;;;;;;;68.13;10.03;;;;;;;;;;4954670;28;20203;-68
2022/04/25 03:53:48;;;;;;;59.70;9.07;;;;;;;;;;4954109;28;20218;-68
2022/04/25 03:58:59;;;;;;;102.17;14.83;;;;;;;;;;4958447;28;20336;-68
2022/04/25 04:01:25;;;;;;;72.97;10.57;;;;;;;;;;4955782;28;20233;-68
2022/04/25 04:03:51;;;;;;;84.87;11.90;;;;;;;;;;4953126;28;20214;-67
2022/04/25 04:06:17;;;;;;;101.03;14.37;;;;;;;;;;4950367;28;20297;-68
2022/04/25 04:08:43;;;;;;;47.77;7.33;;;;;;;;;;4958281;28;20221;-67
2022/04/25 04:11:09;;;;;;;89.93;13.53;;;;;;;;;;4956585;28;20210;-68
2022/04/25 04:13:35;;;;;;;80.23;11.57;;;;;;;;;;4953134;28;20691;-68
2022/04/25 04:16:03;;;;;;;99.97;14.63;;;;;;;;;;4956015;28;20214;-68
2022/04/25 04:18:29;;;;;;;66.90;9.87;;;;;;;;;;4952591;28;20187;-67
2022/04/25 04:20:55;;;;;;;46.40;7.03;;;;;;;;;;4951996;28;20206;-68
2022/04/25 04:23:21;;;;;;;61.37;9.03;;;;;;;;;;4947435;28;20222;-68
2022/04/25 04:25:47;;;;;;;64.87;9.43;;;;;;;;;;4955713;28;20273;-68
2022/04/25 04:28:12;;;;;;;58.23;8.70;;;;;;;;;;4952683;28;20835;-68
2022/04/25 04:30:38;;;;;;;76.27;11.53;;;;;;;;;;4955447;28;20206;-68
2022/04/25 04:33:06;;;;;;;91.43;13.60;;;;;;;;;;4943656;28;20205;-68
2022/04/25 04:38:16;;;;;;;132.60;18.33;;;;;;;;;;4950878;28;20225;-66
2022/04/25 04:40:42;;;;;;;57.23;8.67;;;;;;;;;;4952343;28;20608;-64
2022/04/25 04:43:08;;;;;;;125.03;18.13;;;;;;;;;;4958077;28;20210;-66
2022/04/25 04:45:34;;;;;;;85.73;12.63;;;;;;;;;;4953933;28;20197;-65
2022/04/25 04:48:00;;;;;;;134.03;19.50;;;;;;;;;;4941384;28;20187;-65
2022/04/25 04:50:27;;;;;;;67.40;10.03;;;;;;;;;;4940162;28;20214;-65
2022/04/25 04:52:56;;;;;;;57.07;8.57;;;;;;;;;;4945864;28;20218;-65
2022/04/25 04:55:22;;;;;;;52.53;7.97;;;;;;;;;;4962136;28;20214;-65
2022/04/25 04:57:48;;;;;;;70.00;10.30;;;;;;;;;;4960259;28;20222;-65
2022/04/25 05:00:15;;;;;;;139.63;19.90;;;;;;;;;;4953304;28;20182;-65
2022/04/25 05:02:41;;;;;;;100.70;14.60;;;;;;;;;;4947000;28;20210;-65
2022/04/25 05:05:07;;;;;;;104.23;15.93;;;;;;;;;;4957726;28;20683;-65
2022/04/25 05:07:35;;;;;;;109.67;15.83;;;;;;;;;;4950565;28;20234;-65
2022/04/25 05:10:02;;;;;;;145.60;20.53;;;;;;;;;;4950027;28;20218;-65
2022/04/25 05:12:28;;;;;;;80.43;11.77;;;;;;;;;;4951114;28;20194;-65
2022/04/25 05:14:54;;;;;;;116.30;16.37;;;;;;;;;;4949813;28;20612;-65
2022/04/25 05:17:20;;;;;;;62.47;9.50;;;;;;;;;;4957813;28;20210;-64
2022/04/25 05:19:46;;;;;;;88.17;12.93;;;;;;;;;;4954559;28;20222;-64
2022/04/25 05:22:12;;;;;;;135.43;18.97;;;;;;;;;;4955082;28;20280;-64
2022/04/25 05:24:38;;;;;;;104.77;15.37;;;;;;;;;;4956344;28;20194;-64
2022/04/25 05:27:04;;;;;;;105.90;15.40;;;;;;;;;;4953348;28;20409;-64
2022/04/25 05:29:30;;;;;;;106.27;15.33;;;;;;;;;;4955590;28;20620;-65
2022/04/25 05:31:56;;;;;;;88.30;12.93;;;;;;;;;;4959592;28;20221;-64
2022/04/25 05:34:22;;;;;;;72.03;10.70;;;;;;;;;;4952173;28;20223;-66
2022/04/25 05:36:48;;;;;;;66.43;9.87;;;;;;;;;;4949624;28;20213;-66
2022/04/25 05:39:14;;;;;;;77.97;11.37;;;;;;;;;;4956153;28;20772;-65
2022/04/25 05:41:41;;;;;;;50.50;7.97;;;;;;;;;;4956244;28;20882;-65
2022/04/25 05:44:09;;;;;;;130.67;18.53;;;;;;;;;;4943893;28;20317;-66
2022/04/25 05:46:35;;;;;;;124.30;17.53;;;;;;;;;;4942030;28;24419;-66
2022/04/25 05:52:03;;;;;;;178.80;24.63;;;;;;;;;;4935625;28;20256;-65
2022/04/25 05:54:29;;;;;;;76.80;11.60;;;;;;;;;;4948173;28;20179;-65
2022/04/25 05:56:55;;;;;;;61.30;9.07;;;;;;;;;;4955859;28;20178;-65
2022/04/25 05:59:21;;;;;;;76.23;11.00;;;;;;;;;;4950233;28;20220;-65
2022/04/25 06:01:47;;;;;;;110.30;15.97;;;;;;;;;;4949253;28;20285;-65
2022/04/25 06:04:12;;;;;;;93.73;13.27;;;;;;;;;;4949409;28;20436;-65
2022/04/25 06:06:38;;;;;;;45.07;7.27;;;;;;;;;;4943818;28;20557;-65
2022/04/25 06:09:05;;;;;;;130.17;19.30;;;;;;;;;;4948434;28;20672;-65
2022/04/25 06:11:32;;;;;;;64.90;9.63;;;;;;;;;;4944407;28;20310;-65
2022/04/25 06:13:58;;;;;;;129.30;17.97;;;;;;;;;;4946676;28;20321;-62
2022/04/25 06:16:24;;;;;;;103.00;14.77;;;;;;;;;;4955254;28;20222;-62
2022/04/25 06:18:50;;;;;;;71.50;10.47;;;;;;;;;;4953412;28;20237;-63
2022/04/25 06:21:16;;;;;;;92.10;13.23;;;;;;;;;;4950242;28;20218;-61
2022/04/25 06:23:42;;;;;;;95.23;13.87;;;;;;;;;;4955403;28;20257;-60
2022/04/25 06:26:08;;;;;;;186.20;26.73;;;;;;;;;;4937448;28;20259;-65
2022/04/25 06:28:34;;;;;;;111.27;16.17;;;;;;;;;;4947885;28;20426;-67
2022/04/25 06:31:00;;;;;;;135.53;20.63;;;;;;;;;;4949923;28;20215;-66
2022/04/25 06:33:26;;;;;;;107.77;16.13;;;;;;;;;;4951738;28;20209;-63
2022/04/25 06:35:52;;;;;;;132.70;19.00;;;;;;;;;;4962717;28;20225;-66
2022/04/25 06:38:18;;;;;;;63.30;9.83;;;;;;;;;;4961573;28;20217;-65
2022/04/25 06:40:45;;;;;;;78.13;11.63;;;;;;;;;;4961120;28;20218;-65
2022/04/25 06:43:13;;;;;;;119.17;17.87;;;;;;;;;;4956421;28;20222;-65
2022/04/25 06:45:39;;;;;;;107.47;16.13;;;;;;;;;;4957265;28;21179;-67
2022/04/25 06:48:05;;;;;;;133.47;19.87;;;;;;;;;;4958857;28;20314;-66
2022/04/25 06:50:31;;;;;;;79.63;11.93;;;;;;;;;;4936833;28;20241;-64
2022/04/25 06:52:57;;;;;;;122.03;17.83;;;;;;;;;;4948268;28;20361;-64
2022/04/25 06:55:23;;;;;;;167.20;23.57;;;;;;;;;;4922963;28;20221;-65
2022/04/25 06:57:49;;;;;;;52.50;8.33;;;;;;;;;;4957138;28;20667;-65
2022/04/25 07:00:19;;;;;;;181.50;25.57;;;;;;;;;;4935245;28;20189;-65
2022/04/25 07:02:45;;;;;;;93.40;13.97;;;;;;;;;;4949535;28;20219;-66
2022/04/25 07:05:11;;;;;;;212.43;31.03;;;;;;;;;;4955659;28;20214;-65
2022/04/25 07:07:38;;;;;;;134.23;18.97;;;;;;;;;;4950280;28;20397;-65
2022/04/25 07:10:05;;;;;;;146.47;21.17;;;;;;;;;;4949236;28;20712;-66
2022/04/25 07:12:31;;;;;;;43.10;7.20;;;;;;;;;;4957231;28;20248;-65
2022/04/25 07:14:57;;;;;;;123.77;18.17;;;;;;;;;;4954597;28;20270;-68
2022/04/25 07:17:23;;;;;;;58.30;9.00;;;;;;;;;;4964699;28;20601;-67
2022/04/25 07:19:48;;;;;;;79.57;11.57;;;;;;;;;;4960663;28;20210;-65
2022/04/25 07:30:30;;;;;;;67.53;10.37;;;;;;;;;;4960075;28;20220;-67
2022/04/25 07:32:56;;;;;;;93.67;15.43;;;;;;;;;;4958399;28;20174;-65
2022/04/25 07:35:22;;;;;;;70.57;10.77;;;;;;;;;;4948155;28;20310;-65
2022/04/25 07:37:48;;;;;;;86.80;13.00;;;;;;;;;;4951479;28;20735;-67
2022/04/25 07:40:14;;;;;;;147.33;21.43;;;;;;;;;;4955482;28;20218;-67
2022/04/25 07:42:40;;;;;;;116.27;17.60;;;;;;;;;;4955795;28;20182;-67
2022/04/25 07:45:07;;;;;;;119.97;18.00;;;;;;;;;;4959054;28;20190;-65
2022/04/25 07:47:33;;;;;;;60.77;9.30;;;;;;;;;;4953072;28;20236;-66
2022/04/25 07:50:00;;;;;;;103.43;15.27;;;;;;;;;;4962492;28;20643;-67
2022/04/25 07:52:26;;;;;;;98.60;14.47;;;;;;;;;;4946300;28;20708;-68
2022/04/25 07:54:54;;;;;;;168.53;24.37;;;;;;;;;;4931038;28;20562;-66
2022/04/25 07:57:20;;;;;;;167.73;23.70;;;;;;;;;;4954355;28;20217;-66
2022/04/25 07:59:46;;;;;;;90.17;13.40;;;;;;;;;;4956833;28;20222;-66
2022/04/25 08:02:11;;;;;;;109.30;16.50;;;;;;;;;;4950578;28;20345;-71
2022/04/25 08:04:37;;;;;;;107.07;15.90;;;;;;;;;;4952736;28;20226;-65
2022/04/25 08:07:03;;;;;;;128.90;20.47;;;;;;;;;;4952635;28;21468;-67
2022/04/25 08:09:29;;;;;;;189.83;27.27;;;;;;;;;;4944114;28;20194;-65
2022/04/25 08:20:10;;;;;;;131.33;19.33;;;;;;;;;;4954370;28;20212;-67
2022/04/25 08:22:36;;;;;;;178.13;26.47;;;;;;;;;;4942713;28;20218;-65
2022/04/25 08:25:03;;;;;;;117.47;17.80;;;;;;;;;;4948107;28;20289;-66
2022/04/25 08:27:29;;;;;;;122.90;18.53;;;;;;;;;;4951527;28;21620;-65
2022/04/25 08:29:55;;;;;;;95.23;14.27;;;;;;;;;;4956382;28;20178;-67
2022/04/25 08:32:21;;;;;;;128.27;19.20;;;;;;;;;;4936194;28;20222;-66
2022/04/25 08:34:47;;;;;;;88.00;13.30;;;;;;;;;;4935805;28;20218;-67
2022/04/25 08:37:12;;;;;;;88.83;13.37;;;;;;;;;;4945860;28;20214;-67
2022/04/25 08:39:38;;;;;;;134.40;20.53;;;;;;;;;;4951314;28;20221;-65
2022/04/25 08:42:08;;;;;;;167.30;26.33;;;;;;;;;;4951609;28;20229;-63
2022/04/25 08:44:34;;;;;;;170.87;24.93;;;;;;;;;;4956086;28;20220;-63
2022/04/25 08:47:00;;;;;;;133.43;22.53;;;;;;;;;;4950125;28;20719;-64
2022/04/25 08:49:27;;;;;;;93.90;14.27;;;;;;;;;;4955611;28;20218;-63
2022/04/25 08:51:59;;;;;;;106.33;16.03;;;;;;;;;;4952424;28;20214;-63
2022/04/25 08:54:29;;;;;;;88.10;13.57;;;;;;;;;;4957011;28;20190;-65
2022/04/25 08:56:55;;;;;;;154.10;22.63;;;;;;;;;;4952216;28;20229;-64
2022/04/25 08:59:22;;;;;;;68.37;10.63;;;;;;;;;;4953829;28;20304;-63
2022/04/25 09:01:48;;;;;;;68.33;10.53;;;;;;;;;;4958879;28;20309;-65
2022/04/25 09:04:14;;;;;;;109.13;16.63;;;;;;;;;;4944657;28;20222;-65
2022/04/25 09:06:40;;;;;;;97.60;15.43;;;;;;;;;;4932246;28;20234;-65
2022/04/25 09:09:06;;;;;;;151.57;22.87;;;;;;;;;;4951885;28;20178;-67
2022/04/25 09:14:18;;;;;;;173.47;25.57;;;;;;;;;;4947731;28;20245;-66
2022/04/25 09:16:44;;;;;;;94.10;14.37;;;;;;;;;;4953192;28;20242;-65
2022/04/25 09:19:10;;;;;;;226.10;34.23;;;;;;;;;;4939329;28;20313;-66
2022/04/25 09:21:43;;;;;;;56.23;9.33;;;;;;;;;;4955961;28;20214;-66
2022/04/25 09:24:22;;;;;;;93.10;14.27;;;;;;;;;;4962741;28;20209;-66
2022/04/25 09:26:50;;;;;;;59.83;9.67;;;;;;;;;;4959522;28;20253;-65
2022/04/25 09:29:24;;;;;;;85.30;13.53;;;;;;;;;;4962186;28;20583;-64
2022/04/25 09:31:50;;;;;;;72.53;11.23;;;;;;;;;;4956012;28;20290;-66
2022/04/25 09:34:59;;;;;;;68.50;10.80;;;;;;;;;;4966007;28;20245;-66
2022/04/25 09:37:02;;;;;;;85.87;13.90;;;;;;;;;;4953306;28;20212;-65
2022/04/25 09:39:30;;;;;;;56.70;9.13;;;;;;;;;;4967738;28;20186;-65
2022/04/25 09:41:56;;;;;;;132.73;22.43;;;;;;;;;;4943602;28;20222;-65
2022/04/25 09:44:23;;;;;;;111.70;18.77;;;;;;;;;;4951857;28;20305;-64
2022/04/25 09:46:49;;;;;;;101.67;17.00;;;;;;;;;;4955801;28;20222;-64
2022/04/25 09:49:21;;;;;;;111.63;17.80;;;;;;;;;;4936060;28;20217;-65
2022/04/25 09:52:03;;;;;;;65.37;10.73;;;;;;;;;;4956543;28;20728;-65
2022/04/25 09:54:29;;;;;;;90.77;14.70;;;;;;;;;;4962066;28;20261;-64
2022/04/25 09:56:55;;;;;;;108.33;17.83;;;;;;;;;;4965156;28;20227;-65
2022/04/25 09:59:21;;;;;;;165.73;25.10;;;;;;;;;;4951037;28;20273;-67
2022/04/25 10:02:02;;;;;;;113.87;17.60;;;;;;;;;;4947330;28;20308;-66
2022/04/25 10:04:34;;;;;;;101.28;16.23;;;;;;;;;;4953737;28;20304;-67
2022/04/25 10:07:00;;;;;;;121.23;20.37;;;;;;;;;;4953251;28;20253;-66
2022/04/25 10:09:29;;;;;;;73.90;12.43;;;;;;;;;;4956083;28;20199;-68
2022/04/25 10:11:57;;;;;;;151.50;26.03;;;;;;;;;;4952628;28;20581;-66
2022/04/25 10:14:24;;;;;;;144.25;25.25;;;;;;;;;;4942250;28;20736;-68
2022/04/25 10:16:50;;;;;;;67.18;12.13;;;;;;;;;;4952154;28;20242;-64
2022/04/25 10:19:16;;;;;;;89.72;15.23;;;;;;;;;;4951746;28;20297;-66
2022/04/25 10:21:42;;;;;;;70.57;12.17;;;;;;;;;;4949840;28;20206;-69
2022/04/25 10:24:10;;;;;;;126.70;22.50;;;;;;;;;;4955706;28;20195;-63
2022/04/25 10:26:36;;;;;;;96.63;17.73;;;;;;;;;;4958353;28;20233;-66
2022/04/25 10:29:07;;;;;;;107.90;20.20;;;;;;;;;;4961075;28;20214;-65
2022/04/25 10:31:43;;;;;;;100.93;17.30;;;;;;;;;;4952564;28;20234;-65
2022/04/25 10:34:10;;;;;;;173.82;30.30;;;;;;;;;;4945418;28;20244;-65
2022/04/25 10:36:39;;;;;;;94.38;17.70;;;;;;;;;;4949245;28;20206;-65
2022/04/25 10:39:12;;;;;;;120.47;23.10;;;;;;;;;;4955848;28;20198;-65
2022/04/25 10:44:22;;;;;;;135.75;26.05;;;;;;;;;;4953569;28;20298;-65
2022/04/25 10:47:04;;;;;;;140.50;26.90;;;;;;;;;;4955927;28;20214;-64
2022/04/25 10:49:32;;;;;;;106.57;20.98;;;;;;;;;;4954998;28;20265;-66
2022/04/25 10:51:59;;;;;;;159.95;32.45;;;;;;;;;;4956352;28;20261;-65
2022/04/25 10:54:28;;;;;;;91.53;16.50;;;;;;;;;;4957578;28;20236;-65
2022/04/25 10:57:11;;;;;;;92.13;16.45;;;;;;;;;;4954606;28;20214;-65
2022/04/25 10:59:40;;;;;;;91.30;16.47;;;;;;;;;;4952640;28;20688;-63
2022/04/25 11:02:25;;;;;;;157.32;29.08;;;;;;;;;;4951318;28;20210;-65
2022/04/25 11:05:10;;;;;;;73.43;13.57;;;;;;;;;;4963880;28;20241;-64
2022/04/25 11:07:37;;;;;;;101.50;18.08;;;;;;;;;;4954956;28;20241;-65
2022/04/25 11:10:03;;;;;;;129.80;25.08;;;;;;;;;;4953979;28;20217;-65
2022/04/25 11:12:48;;;;;;;219.55;38.15;;;;;;;;;;4960544;28;20274;-66
2022/04/25 11:15:34;;;;;;;153.38;27.48;;;;;;;;;;4957536;28;20678;-64
2022/04/25 11:18:19;;;;;;;171.13;31.40;;;;;;;;;;4947087;28;20210;-65
2022/04/25 11:20:55;;;;;;;143.10;24.70;;;;;;;;;;4955539;28;20214;-63
2022/04/25 11:23:26;;;;;;;98.95;17.02;;;;;;;;;;4939162;28;20612;-64
2022/04/25 11:25:55;;;;;;;69.22;12.80;;;;;;;;;;4958324;28;20213;-65
2022/04/25 11:28:21;;;;;;;142.13;24.67;;;;;;;;;;4951500;28;20242;-65
2022/04/25 11:31:07;;;;;;;73.50;13.07;;;;;;;;;;4953605;28;20656;-65
2022/04/25 11:33:40;;;;;;;107.70;19.27;;;;;;;;;;4952535;28;20191;-64
2022/04/25 11:36:07;;;;;;;144.00;26.80;;;;;;;;;;4956748;28;20189;-64
2022/04/25 11:41:21;;;;;;;148.87;25.57;;;;;;;;;;4947990;28;22541;-65
2022/04/25 11:43:47;;;;;;;107.27;18.43;;;;;;;;;;4934344;28;20968;-64
2022/04/25 11:46:14;;;;;;;88.70;15.57;;;;;;;;;;4951304;28;20245;-65
2022/04/25 11:48:40;;;;;;;104.35;18.58;;;;;;;;;;4956165;28;20541;-65
2022/04/25 11:51:06;;;;;;;104.50;18.20;;;;;;;;;;4962002;28;20195;-65
2022/04/25 11:53:35;;;;;;;78.73;14.17;;;;;;;;;;4966160;28;20237;-63
2022/04/25 11:56:14;;;;;;;118.55;20.63;;;;;;;;;;4960664;28;20241;-65
2022/04/25 11:58:41;;;;;;;104.10;17.87;;;;;;;;;;4953248;28;20301;-64
2022/04/25 12:01:09;;;;;;;104.50;18.60;;;;;;;;;;4942636;28;20269;-64
2022/04/25 12:03:36;;;;;;;61.53;11.90;;;;;;;;;;4957158;28;20282;-65
2022/04/25 12:06:12;;;;;;;102.82;20.33;;;;;;;;;;4966372;28;20292;-64
2022/04/25 12:17:00;;;;;;;67.25;17.63;;;;;;;;;;4962503;28;20217;-64
2022/04/25 12:19:26;;;;;;;61.27;15.97;;;;;;;;;;4958140;28;20211;-65
2022/04/25 12:22:05;;;;;;;102.73;23.50;;;;;;;;;;4963882;28;20225;-65
2022/04/25 12:24:31;;;;;;;47.05;11.63;;;;;;;;;;4967917;28;20198;-64
2022/04/25 12:26:57;;;;;;;107.33;24.27;;;;;;;;;;4965214;28;20685;-64
2022/04/25 12:29:23;;;;;;;101.57;22.13;;;;;;;;;;4958211;28;20218;-64
2022/04/25 12:31:49;;;;;;;73.10;15.73;;;;;;;;;;4960044;28;20294;-62
2022/04/25 12:34:16;;;;;;;58.63;12.93;;;;;;;;;;4965257;28;20684;-65
2022/04/25 12:36:54;;;;;;;62.70;13.90;;;;;;;;;;4964203;28;20612;-64
2022/04/25 12:39:20;;;;;;;74.38;15.32;;;;;;;;;;4966900;28;20190;-63
2022/04/25 12:41:56;;;;;;;77.80;16.53;;;;;;;;;;4965754;28;20241;-63
2022/04/25 12:44:22;;;;;;;221.83;45.10;;;;;;;;;;4964956;28;20213;-63
2022/04/25 12:46:54;;;;;;;104.87;22.03;;;;;;;;;;4958180;28;20317;-67
2022/04/25 12:49:22;;;;;;;107.00;22.13;;;;;;;;;;4957446;28;20210;-64
2022/04/25 12:51:54;;;;;;;131.65;27.00;;;;;;;;;;4952230;28;20214;-66
2022/04/25 12:54:23;;;;;;;57.37;11.97;;;;;;;;;;4957373;28;20664;-67
2022/04/25 12:56:50;;;;;;;70.97;15.13;;;;;;;;;;4953506;28;20229;-65
2022/04/25 12:59:30;;;;;;;140.47;27.87;;;;;;;;;;4953949;28;20237;-64
2022/04/25 13:02:00;;;;;;;139.10;27.37;;;;;;;;;;4954098;28;20225;-64
2022/04/25 13:04:26;;;;;;;136.13;27.33;;;;;;;;;;4948498;28;20643;-62
2022/04/25 13:06:52;;;;;;;107.07;21.00;;;;;;;;;;4947885;28;20285;-64
2022/04/25 13:09:18;;;;;;;122.97;24.47;;;;;;;;;;4932918;28;20190;-62
2022/04/25 13:11:44;;;;;;;56.43;11.50;;;;;;;;;;4955188;28;20683;-63
2022/04/25 13:14:11;;;;;;;202.23;39.87;;;;;;;;;;4942467;28;20213;-61
2022/04/25 13:16:37;;;;;;;88.07;17.57;;;;;;;;;;4951305;28;20206;-64
2022/04/25 13:19:03;;;;;;;142.20;27.77;;;;;;;;;;4954119;28;20698;-64
2022/04/25 13:21:29;;;;;;;137.60;26.23;;;;;;;;;;4950268;28;20213;-64
2022/04/25 13:23:55;;;;;;;76.50;15.13;;;;;;;;;;4954275;28;20202;-65
2022/04/25 13:26:21;;;;;;;109.27;21.57;;;;;;;;;;4954985;28;20569;-65
2022/04/25 13:28:48;;;;;;;164.87;31.57;;;;;;;;;;4951895;28;20223;-64
2022/04/25 13:31:14;;;;;;;130.63;25.73;;;;;;;;;;4944655;28;20224;-65
2022/04/25 13:33:40;;;;;;;177.23;33.23;;;;;;;;;;4948819;28;20552;-65
2022/04/25 13:36:06;;;;;;;116.20;22.30;;;;;;;;;;4952305;28;20193;-66
2022/04/25 13:38:35;;;;;;;89.13;17.77;;;;;;;;;;4955716;28;20333;-65
2022/04/25 13:41:02;;;;;;;122.00;26.67;;;;;;;;;;4957732;28;20218;-64
2022/04/25 13:43:28;;;;;;;154.67;29.40;;;;;;;;;;4956409;28;20266;-65
2022/04/25 13:45:54;;;;;;;99.73;19.27;;;;;;;;;;4955639;28;20222;-62
2022/04/25 13:48:21;;;;;;;77.10;14.40;;;;;;;;;;4950956;28;20214;-66
2022/04/25 13:50:47;;;;;;;155.67;29.73;;;;;;;;;;4953489;28;22694;-66
2022/04/25 13:53:13;;;;;;;145.07;26.60;;;;;;;;;;4934233;28;20221;-63
2022/04/25 13:55:39;;;;;;;100.10;18.80;;;;;;;;;;4956323;28;20218;-64
2022/04/25 13:58:05;;;;;;;136.77;24.57;;;;;;;;;;4960916;28;20214;-64
2022/04/25 14:00:31;;;;;;;68.60;13.53;;;;;;;;;;4958630;28;20691;-63
2022/04/25 14:03:06;;;;;;;142.97;25.73;;;;;;;;;;4953744;28;20193;-63
2022/04/25 14:05:43;;;;;;;103.80;18.77;;;;;;;;;;4957960;28;20217;-63
2022/04/25 14:08:09;;;;;;;115.97;21.43;;;;;;;;;;4955580;28;20671;-63
2022/04/25 14:10:37;;;;;;;79.43;15.00;;;;;;;;;;4957516;28;21188;-62
2022/04/25 14:13:03;;;;;;;106.60;20.13;;;;;;;;;;4954041;28;20715;-62
2022/04/25 14:15:30;;;;;;;104.33;18.93;;;;;;;;;;4949885;28;20556;-62
2022/04/25 14:17:56;;;;;;;152.83;28.20;;;;;;;;;;4949822;28;20245;-63
2022/04/25 14:20:22;;;;;;;52.37;10.20;;;;;;;;;;4953687;28;20313;-64
2022/04/25 14:22:48;;;;;;;122.03;22.07;;;;;;;;;;4954710;28;20222;-64
2022/04/25 14:25:14;;;;;;;96.07;17.67;;;;;;;;;;4957349;28;20272;-63
2022/04/25 14:27:40;;;;;;;102.87;19.27;;;;;;;;;;4946732;28;20687;-64
2022/04/25 14:30:08;;;;;;;156.27;27.87;;;;;;;;;;4956198;28;20651;-63
2022/04/25 14:32:34;;;;;;;106.43;18.50;;;;;;;;;;4955086;28;20207;-63
2022/04/25 14:35:00;;;;;;;141.43;26.07;;;;;;;;;;4960422;28;20796;-64
2022/04/25 14:37:26;;;;;;;81.57;15.03;;;;;;;;;;4960821;28;20218;-62
2022/04/25 14:39:52;;;;;;;107.17;20.03;;;;;;;;;;4961812;28;20210;-63
2022/04/25 14:42:18;;;;;;;116.10;20.67;;;;;;;;;;4959596;28;20211;-63
2022/04/25 14:44:44;;;;;;;55.40;10.47;;;;;;;;;;4964879;28;20214;-63
2022/04/25 14:47:10;;;;;;;107.40;19.50;;;;;;;;;;4956235;28;20314;-63
2022/04/25 14:55:05;;;;;;;74.80;14.30;;;;;;;;;;4962915;28;20273;-64
2022/04/25 14:57:31;;;;;;;93.17;18.23;;;;;;;;;;4960752;28;20189;-63
2022/04/25 14:59:57;;;;;;;161.10;31.77;;;;;;;;;;4956063;28;20190;-63
2022/04/25 15:02:23;;;;;;;126.77;23.33;;;;;;;;;;4960969;28;20230;-63